createdAt,value
2023-02-09T00:02:01.678Z,102641.05
2023-02-09T00:04:33.156Z,102631.28
2023-02-09T00:07:05.717Z,102625.23
2023-02-09T00:09:36.373Z,102628.59
2023-02-09T00:12:36.529Z,102628.50
2023-02-09T00:15:09.008Z,102629.08
2023-02-09T00:17:43.015Z,102627.17
2023-02-09T00:20:12.428Z,102618.70
2023-02-09T00:22:44.720Z,102612.30
2023-02-09T00:25:14.342Z,102604.10
2023-02-09T00:27:44.695Z,102597.92
2023-02-09T00:30:14.012Z,102596.00
2023-02-09T00:32:47.912Z,102589.77
2023-02-09T00:35:19.742Z,102583.82
2023-02-09T00:37:50.432Z,102576.04
2023-02-09T00:40:23.003Z,102575.31
2023-02-09T00:42:52.704Z,102573.77
2023-02-09T00:45:51.610Z,102569.18
2023-02-09T00:48:22.160Z,102558.84
2023-02-09T00:50:53.714Z,102558.30
2023-02-09T00:53:24.729Z,102560.95
2023-02-09T00:55:53.797Z,102561.07
2023-02-09T00:58:25.138Z,102557.86
2023-02-09T01:00:55.657Z,102552.22
2023-02-09T01:03:25.233Z,102551.46
2023-02-09T01:05:58.737Z,102551.88
2023-02-09T01:08:30.627Z,102550.30
2023-02-09T01:11:00.562Z,102547.83
2023-02-09T01:13:30.458Z,102541.69
2023-02-09T01:16:01.283Z,102538.52
2023-02-09T01:18:32.595Z,102531.77
2023-02-09T01:21:03.614Z,102529.92
2023-02-09T01:23:36.132Z,102522.61
2023-02-09T01:26:06.769Z,102510.26
2023-02-09T01:28:38.181Z,102505.75
2023-02-09T01:31:18.056Z,102505.65
2023-02-09T01:33:48.796Z,102505.54
2023-02-09T01:36:19.717Z,102505.95
2023-02-09T01:38:52.876Z,102499.23
2023-02-09T01:41:23.335Z,102494.30
2023-02-09T01:43:53.093Z,102487.16
2023-02-09T01:46:26.190Z,102481.85
2023-02-09T01:49:10.661Z,102474.89
2023-02-09T01:51:46.531Z,102469.86
2023-02-09T01:54:22.899Z,102465.52
2023-02-09T01:56:57.596Z,102463.40
2023-02-09T01:59:27.262Z,102462.00
2023-02-09T02:01:58.072Z,102463.34
2023-02-09T02:04:28.204Z,102464.40
2023-02-09T02:07:04.648Z,102466.50
2023-02-09T02:09:35.553Z,102457.19
2023-02-09T02:12:06.198Z,102452.39
2023-02-09T02:14:38.481Z,102440.27
2023-02-09T02:17:10.485Z,102438.27
2023-02-09T02:20:05.167Z,102430.69
2023-02-09T02:22:34.854Z,102436.75
2023-02-09T02:25:22.780Z,102441.26
2023-02-09T02:28:10.943Z,102441.54
2023-02-09T02:30:58.592Z,102436.38
2023-02-09T02:33:32.313Z,102435.96
2023-02-09T02:36:01.362Z,102433.80
2023-02-09T02:38:48.114Z,102431.29
2023-02-09T02:41:21.803Z,102431.46
2023-02-09T02:44:03.901Z,102427.28
2023-02-09T02:46:45.194Z,102424.58
2023-02-09T02:49:30.241Z,102420.30
2023-02-09T02:52:03.968Z,102417.48
2023-02-09T02:54:45.295Z,102411.79
2023-02-09T02:57:21.296Z,102415.91
2023-02-09T02:59:54.109Z,102415.39
2023-02-09T03:02:37.603Z,102409.48
2023-02-09T03:05:09.589Z,102405.63
2023-02-09T03:07:39.886Z,102399.60
2023-02-09T03:10:28.124Z,102396.71
2023-02-09T03:13:27.672Z,102397.84
2023-02-09T03:16:19.776Z,102390.57
2023-02-09T03:55:34.860Z,102373.67
2023-02-09T03:58:05.849Z,102377.33
2023-02-09T04:00:36.295Z,102378.48
2023-02-09T04:03:08.161Z,102372.31
2023-02-09T04:05:37.943Z,102369.41
2023-02-09T04:08:09.970Z,102366.21
2023-02-09T04:10:40.914Z,102362.93
2023-02-09T04:13:11.247Z,102363.92
2023-02-09T04:15:41.897Z,102362.92
2023-02-09T04:18:12.256Z,102362.34
2023-02-09T04:20:43.747Z,102361.54
2023-02-09T04:23:13.813Z,102358.25
2023-02-09T04:25:43.907Z,102346.40
2023-02-09T04:28:15.788Z,102344.59
2023-02-09T04:30:45.453Z,102339.77
2023-02-09T04:33:17.311Z,102335.04
2023-02-09T04:35:46.704Z,102332.08
2023-02-09T04:38:19.781Z,102322.17
2023-02-09T04:40:50.581Z,102318.75
2023-02-09T04:43:20.567Z,102318.67
2023-02-09T04:45:51.923Z,102321.41
2023-02-09T04:48:22.706Z,102318.92
2023-02-09T04:50:52.861Z,102313.74
2023-02-09T04:53:23.727Z,102305.42
2023-02-09T04:55:56.008Z,102305.60
2023-02-09T04:58:43.671Z,102303.04
2023-02-09T05:01:17.669Z,102295.21
2023-02-09T05:03:48.753Z,102294.05
2023-02-09T05:06:20.047Z,102290.23
2023-02-09T05:08:50.595Z,102291.35
2023-02-09T05:11:19.894Z,102289.22
2023-02-09T05:13:51.666Z,102291.54
2023-02-09T05:16:21.898Z,102295.58
2023-02-09T05:18:51.539Z,102299.25
2023-02-09T05:21:23.880Z,102297.48
2023-02-09T05:27:22.450Z,102288.33
2023-02-09T05:29:52.343Z,102282.20
2023-02-09T05:32:21.461Z,102283.88
2023-02-09T05:34:53.614Z,102282.44
2023-02-09T05:37:23.702Z,102280.42
2023-02-09T05:39:54.833Z,102281.25
2023-02-09T05:42:29.569Z,102273.93
2023-02-09T05:45:03.119Z,102277.85
2023-02-09T05:47:33.383Z,102281.64
2023-02-09T05:50:03.038Z,102285.38
2023-02-09T05:52:34.835Z,102283.30
2023-02-09T05:55:04.994Z,102273.66
2023-02-09T05:57:35.471Z,102273.73
2023-02-09T06:00:06.091Z,102274.06
2023-02-09T06:02:42.940Z,102268.73
2023-02-09T06:05:14.712Z,102267.42
2023-02-09T06:07:43.794Z,102265.27
2023-02-09T06:10:14.440Z,102267.97
2023-02-09T06:12:45.110Z,102264.80
2023-02-09T06:15:16.690Z,102265.80
2023-02-09T06:17:48.735Z,102270.68
2023-02-09T06:20:19.701Z,102268.89
2023-02-09T06:22:49.049Z,102265.99
2023-02-09T06:25:18.886Z,102269.33
2023-02-09T06:27:48.246Z,102271.51
2023-02-09T06:30:19.142Z,102274.61
2023-02-09T06:32:50.957Z,102273.55
2023-02-09T06:35:22.512Z,102272.45
2023-02-09T06:37:53.205Z,102271.37
2023-02-09T06:40:24.350Z,102271.32
2023-02-09T06:42:55.736Z,102271.54
2023-02-09T06:45:32.558Z,102263.19
2023-02-09T06:48:02.862Z,102264.96
2023-02-09T06:50:37.139Z,102256.60
2023-02-09T06:53:10.462Z,102255.09
2023-02-09T06:55:39.888Z,102253.08
2023-02-09T06:58:10.966Z,102253.28
2023-02-09T07:00:40.483Z,102249.22
2023-02-09T07:03:13.085Z,102253.27
2023-02-09T07:05:42.524Z,102254.90
2023-02-09T07:08:14.070Z,102249.18
2023-02-09T07:10:42.867Z,102243.58
2023-02-09T07:13:11.856Z,102242.60
2023-02-09T07:15:44.145Z,102237.73
2023-02-09T07:18:13.220Z,102230.55
2023-02-09T07:20:44.689Z,102229.58
2023-02-09T07:23:14.286Z,102224.88
2023-02-09T07:25:43.810Z,102220.48
2023-02-09T07:28:13.305Z,102214.09
2023-02-09T07:30:43.534Z,102220.48
2023-02-09T07:33:14.400Z,102217.98
2023-02-09T07:35:46.905Z,102211.83
2023-02-09T07:38:18.257Z,102213.55
2023-02-09T07:40:49.554Z,102213.91
2023-02-09T07:43:20.146Z,102217.73
2023-02-09T07:50:07.527Z,102214.45
2023-02-09T07:52:37.544Z,102209.59
2023-02-09T07:55:06.795Z,102206.54
2023-02-09T07:57:36.191Z,102206.52
2023-02-09T08:00:06.801Z,102201.74
2023-02-09T08:02:46.581Z,102201.23
2023-02-09T08:05:27.976Z,102207.50
2023-02-09T08:08:00.269Z,102208.07
2023-02-09T08:10:32.271Z,102201.98
2023-02-09T08:13:02.598Z,102201.29
2023-02-09T08:15:41.637Z,102201.33
2023-02-09T08:18:15.225Z,102200.79
2023-02-09T08:20:46.123Z,102198.98
2023-02-09T08:23:20.361Z,102198.70
2023-02-09T08:25:52.017Z,102203.11
2023-02-09T08:28:21.725Z,102205.20
2023-02-09T08:30:54.131Z,102206.55
2023-02-09T08:33:25.230Z,102204.41
2023-02-09T08:35:54.518Z,102195.02
2023-02-09T08:38:26.880Z,102195.24
2023-02-09T08:40:57.364Z,102192.39
2023-02-09T08:43:29.072Z,102193.48
2023-02-09T08:46:06.381Z,102194.00
2023-02-09T08:48:38.757Z,102189.48
2023-02-09T08:51:09.636Z,102190.07
2023-02-09T08:53:40.982Z,102186.50
2023-02-09T08:56:12.798Z,102184.24
2023-02-09T08:58:42.964Z,102178.21
2023-02-09T09:01:13.761Z,102177.22
2023-02-09T09:03:45.584Z,102170.98
2023-02-09T09:06:15.448Z,102167.10
2023-02-09T09:08:45.842Z,102159.62
2023-02-09T09:11:17.784Z,102155.50
2023-02-09T09:13:49.115Z,102154.05
2023-02-09T09:16:20.913Z,102152.51
2023-02-09T09:18:50.922Z,102155.05
2023-02-09T09:21:22.425Z,102151.71
2023-02-09T09:23:51.325Z,102152.33
2023-02-09T09:26:21.951Z,102154.17
2023-02-09T09:28:54.763Z,102146.85
2023-02-09T09:31:25.768Z,102151.02
2023-02-09T09:33:55.736Z,102147.79
2023-02-09T09:36:26.708Z,102140.58
2023-02-09T09:38:56.814Z,102136.78
2023-02-09T09:41:32.311Z,102126.17
2023-02-09T09:44:05.440Z,102117.48
2023-02-09T09:46:43.224Z,102113.02
2023-02-09T09:49:32.750Z,102104.72
2023-02-09T09:52:21.996Z,102102.67
2023-02-09T09:54:52.737Z,102092.79
2023-02-09T09:57:28.107Z,102100.19
2023-02-09T09:59:58.544Z,102094.95
2023-02-09T10:02:27.533Z,102096.52
2023-02-09T10:05:02.145Z,102087.25
2023-02-09T10:07:34.574Z,102087.33
2023-02-09T10:10:16.201Z,102089.95
2023-02-09T10:12:50.202Z,102090.06
2023-02-09T10:15:30.584Z,102096.08
2023-02-09T10:18:01.460Z,102085.71
2023-02-09T10:20:49.453Z,102089.59
2023-02-09T10:23:22.213Z,102082.58
2023-02-09T10:25:55.581Z,102081.50
2023-02-09T10:28:26.972Z,102076.23
2023-02-09T10:30:57.557Z,102073.80
2023-02-09T10:33:27.751Z,102077.19
2023-02-09T10:35:58.217Z,102066.05
2023-02-09T10:38:33.057Z,102055.12
2023-02-09T10:41:02.443Z,102053.27
2023-02-09T10:43:34.065Z,102046.52
2023-02-09T10:46:15.037Z,102044.36
2023-02-09T10:48:45.621Z,102043.07
2023-02-09T10:51:16.277Z,102038.07
2023-02-09T10:54:06.462Z,102038.80
2023-02-09T10:56:43.709Z,102034.59
2023-02-09T10:59:17.960Z,102037.48
2023-02-09T11:02:07.096Z,102033.59
2023-02-09T11:04:39.018Z,102017.91
2023-02-09T11:07:12.764Z,102021.42
2023-02-09T11:09:52.273Z,102020.67
2023-02-09T11:12:23.168Z,102029.80
